createdAt,value
2019-05-16T00:01:09.343Z,10.90
2019-05-16T00:03:35.661Z,10.90
2019-05-16T00:06:02.105Z,10.90
2019-05-16T00:08:28.669Z,10.80
2019-05-16T00:10:54.989Z,10.90
2019-05-16T00:13:21.154Z,10.90
2019-05-16T00:15:48.076Z,10.90
2019-05-16T00:18:14.631Z,10.90
2019-05-16T00:20:40.947Z,10.90
2019-05-16T00:23:07.942Z,10.90
2019-05-16T00:25:34.337Z,10.90
2019-05-16T00:28:00.533Z,10.90
2019-05-16T00:30:28.752Z,10.90
2019-05-16T00:32:54.892Z,10.90
2019-05-16T00:35:21.085Z,10.90
2019-05-16T00:37:48.347Z,10.90
2019-05-16T00:40:14.939Z,10.90
2019-05-16T00:42:41.117Z,11.00
2019-05-16T00:45:09.104Z,11.00
2019-05-16T00:47:35.782Z,11.10
2019-05-16T00:50:02.351Z,11.10
2019-05-16T00:52:28.917Z,11.20
2019-05-16T00:54:55.215Z,11.30
2019-05-16T00:57:21.877Z,11.20
2019-05-16T00:59:48.609Z,11.30
2019-05-16T01:02:14.967Z,11.30
2019-05-16T01:04:41.155Z,11.30
2019-05-16T01:07:08.155Z,11.40
2019-05-16T01:09:34.697Z,11.40
2019-05-16T01:12:00.928Z,11.40
2019-05-16T01:14:28.253Z,11.40
2019-05-16T01:16:54.734Z,11.40
2019-05-16T01:19:20.901Z,11.40
2019-05-16T01:21:48.386Z,11.40
2019-05-16T01:24:14.685Z,11.40
2019-05-16T01:26:40.908Z,11.50
2019-05-16T01:29:08.529Z,11.50
2019-05-16T01:31:35.198Z,11.50
2019-05-16T01:34:01.498Z,11.50
2019-05-16T01:36:36.710Z,11.50
2019-05-16T01:38:58.372Z,11.40
2019-05-16T01:41:24.317Z,11.50
2019-05-16T01:43:50.510Z,11.50
2019-05-16T01:46:18.037Z,11.50
2019-05-16T01:48:44.567Z,11.50
2019-05-16T01:51:10.968Z,11.50
2019-05-16T01:53:39.332Z,11.40
2019-05-16T01:56:05.420Z,11.50
2019-05-16T01:58:31.895Z,11.40
2019-05-16T02:01:11.621Z,11.40
2019-05-16T02:03:28.263Z,11.40
2019-05-16T02:05:54.713Z,11.40
2019-05-16T02:08:20.895Z,11.40
2019-05-16T02:10:47.833Z,11.40
2019-05-16T02:13:14.377Z,11.40
2019-05-16T02:15:40.655Z,11.40
2019-05-16T02:18:08.219Z,11.30
2019-05-16T02:20:34.828Z,11.30
2019-05-16T02:23:01.124Z,11.30
2019-05-16T02:25:27.726Z,11.30
2019-05-16T02:27:54.060Z,11.30
2019-05-16T02:30:21.755Z,11.30
2019-05-16T02:32:51.907Z,11.30
2019-05-16T02:35:16.495Z,11.30
2019-05-16T02:37:42.842Z,11.30
2019-05-16T02:40:11.934Z,11.30
2019-05-16T02:42:41.546Z,11.30
2019-05-16T02:45:10.681Z,11.30
2019-05-16T02:47:35.441Z,11.30
2019-05-16T02:50:04.138Z,11.30
2019-05-16T02:52:31.779Z,11.30
2019-05-16T02:55:00.928Z,11.30
2019-05-16T02:57:27.193Z,11.30
2019-05-16T02:59:53.438Z,11.30
2019-05-16T03:02:20.589Z,11.30
2019-05-16T03:04:47.304Z,11.30
2019-05-16T03:07:35.524Z,11.30
2019-05-16T03:09:43.783Z,11.30
2019-05-16T03:12:10.821Z,11.20
2019-05-16T03:14:37.557Z,11.20
2019-05-16T03:17:04.621Z,11.20
2019-05-16T03:19:34.391Z,11.20
2019-05-16T03:22:02.345Z,11.20
2019-05-16T03:24:30.984Z,11.20
2019-05-16T03:26:56.989Z,11.20
2019-05-16T03:29:30.696Z,11.10
2019-05-16T03:31:56.643Z,11.10
2019-05-16T03:34:25.381Z,11.10
2019-05-16T03:36:54.384Z,11.10
2019-05-16T03:39:21.255Z,11.10
2019-05-16T03:41:50.557Z,11.00
2019-05-16T03:44:16.732Z,11.00
2019-05-16T03:46:43.148Z,11.00
2019-05-16T03:49:11.305Z,11.00
2019-05-16T03:51:37.820Z,11.00
2019-05-16T03:54:04.331Z,11.00
2019-05-16T03:56:30.795Z,11.00
2019-05-16T03:58:57.230Z,11.00
2019-05-16T04:01:23.545Z,11.00
2019-05-16T04:03:51.153Z,11.00
2019-05-16T04:06:17.893Z,11.00
2019-05-16T04:08:51.853Z,11.10
2019-05-16T04:11:22.790Z,11.00
2019-05-16T04:16:27.667Z,11.00
2019-05-16T04:18:55.137Z,11.00
2019-05-16T04:21:22.235Z,11.00
2019-05-16T04:23:50.638Z,11.00
2019-05-16T04:26:21.382Z,11.10
2019-05-16T04:28:46.505Z,11.10
2019-05-16T04:31:13.646Z,11.10
2019-05-16T04:33:41.665Z,11.10
2019-05-16T04:36:10.859Z,11.10
2019-05-16T04:38:45.063Z,11.20
2019-05-16T04:41:04.930Z,11.20
2019-05-16T04:43:31.748Z,11.20
2019-05-16T04:46:01.383Z,11.20
2019-05-16T04:48:26.878Z,11.30
2019-05-16T04:50:53.320Z,11.30
2019-05-16T04:53:20.727Z,11.30
2019-05-16T04:55:50.988Z,11.30
2019-05-16T04:58:15.616Z,11.30
2019-05-16T05:00:42.536Z,11.30
2019-05-16T05:03:11.711Z,11.30
2019-05-16T05:05:37.114Z,11.30
2019-05-16T05:08:03.430Z,11.30
2019-05-16T05:10:31.268Z,11.30
2019-05-16T05:12:57.789Z,11.30
2019-05-16T05:15:25.443Z,11.30
2019-05-16T05:17:52.397Z,11.40
2019-05-16T05:20:21.067Z,11.40
2019-05-16T05:22:47.053Z,11.40
2019-05-16T05:25:13.585Z,11.40
2019-05-16T05:27:41.173Z,11.40
2019-05-16T05:30:10.275Z,11.40
2019-05-16T05:32:37.581Z,11.50
2019-05-16T05:35:10.333Z,11.50
2019-05-16T05:37:36.060Z,11.50
2019-05-16T05:40:04.076Z,11.60
2019-05-16T05:42:30.725Z,11.60
2019-05-16T05:44:57.404Z,11.60
2019-05-16T05:47:23.867Z,11.70
2019-05-16T05:49:51.123Z,11.70
2019-05-16T05:52:17.728Z,11.80
2019-05-16T05:54:46.228Z,11.90
2019-05-16T05:57:12.689Z,11.90
2019-05-16T05:59:40.407Z,12.00
2019-05-16T06:02:07.728Z,12.00
2019-05-16T06:04:34.143Z,12.10
2019-05-16T06:07:01.170Z,12.10
2019-05-16T06:09:32.591Z,12.20
2019-05-16T06:11:57.875Z,12.20
2019-05-16T06:14:24.338Z,12.20
2019-05-16T06:16:51.360Z,12.20
2019-05-16T06:19:19.953Z,12.20
2019-05-16T06:21:46.551Z,12.30
2019-05-16T06:24:16.011Z,12.30
2019-05-16T06:26:42.165Z,12.40
2019-05-16T06:29:10.408Z,12.40
2019-05-16T06:31:36.842Z,12.40
2019-05-16T06:34:07.753Z,12.40
2019-05-16T06:36:31.853Z,12.40
2019-05-16T06:39:00.086Z,12.40
2019-05-16T06:41:26.324Z,12.50
2019-05-16T06:43:59.814Z,12.60
2019-05-16T06:46:25.585Z,12.70
2019-05-16T06:48:52.459Z,12.70
2019-05-16T06:51:20.034Z,12.70
2019-05-16T06:53:46.562Z,12.70
2019-05-16T06:56:12.979Z,12.70
2019-05-16T06:58:48.137Z,12.80
2019-05-16T07:01:09.703Z,12.80
2019-05-16T07:03:35.502Z,12.70
2019-05-16T07:06:02.553Z,12.70
2019-05-16T07:08:31.017Z,12.70
2019-05-16T07:10:59.846Z,12.60
2019-05-16T07:13:26.002Z,12.60
2019-05-16T07:15:52.345Z,12.60
2019-05-16T07:18:20.990Z,12.60
2019-05-16T07:20:47.185Z,12.60
2019-05-16T07:23:13.567Z,12.60
2019-05-16T07:25:40.966Z,12.70
2019-05-16T07:28:10.072Z,12.70
2019-05-16T07:30:36.071Z,12.80
2019-05-16T07:33:02.565Z,12.90
2019-05-16T07:35:30.800Z,13.00
2019-05-16T07:38:00.478Z,13.00
2019-05-16T07:40:27.103Z,13.00
2019-05-16T07:42:53.969Z,13.00
2019-05-16T07:45:20.597Z,13.10
2019-05-16T07:47:47.142Z,13.20
2019-05-16T07:50:13.862Z,13.30
2019-05-16T07:52:40.596Z,13.40
2019-05-16T07:55:10.857Z,13.40
2019-05-16T07:57:36.519Z,13.50
2019-05-16T08:00:09.664Z,13.60
2019-05-16T08:02:37.289Z,13.60
2019-05-16T08:05:04.772Z,13.70
2019-05-16T08:07:33.561Z,13.80
2019-05-16T08:09:59.911Z,13.90
2019-05-16T08:12:26.944Z,13.90
2019-05-16T08:14:53.659Z,13.90
2019-05-16T08:17:21.628Z,13.80
2019-05-16T08:19:50.438Z,13.80
2019-05-16T08:22:16.308Z,13.90
2019-05-16T08:24:42.630Z,14.00
2019-05-16T08:27:12.183Z,14.10
2019-05-16T08:29:39.859Z,14.30
2019-05-16T08:32:05.692Z,14.50
2019-05-16T08:34:32.377Z,14.60
2019-05-16T08:37:01.171Z,14.60
2019-05-16T08:39:30.113Z,14.60
2019-05-16T08:41:56.058Z,14.70
2019-05-16T08:44:23.540Z,14.70
2019-05-16T08:46:57.095Z,14.70
2019-05-16T08:49:22.203Z,14.70
2019-05-16T08:51:52.121Z,14.80
2019-05-16T08:54:15.849Z,14.90
2019-05-16T08:56:44.485Z,15.00
2019-05-16T08:59:13.497Z,15.10
2019-05-16T09:01:50.643Z,15.10
2019-05-16T09:04:11.708Z,15.20
2019-05-16T09:06:36.824Z,15.20
2019-05-16T09:09:26.785Z,15.20
2019-05-16T09:11:41.416Z,15.20
2019-05-16T09:14:02.489Z,15.30
2019-05-16T09:16:29.135Z,15.40
2019-05-16T09:18:57.534Z,15.50
2019-05-16T09:21:27.129Z,15.60
2019-05-16T09:23:52.260Z,15.70
2019-05-16T09:26:19.952Z,15.70
2019-05-16T09:28:48.234Z,15.80
2019-05-16T09:31:17.448Z,15.80
2019-05-16T09:33:43.553Z,15.80
2019-05-16T09:36:09.914Z,15.80
2019-05-16T09:38:38.243Z,15.90
2019-05-16T09:41:07.673Z,15.90
2019-05-16T09:43:33.007Z,16.00
2019-05-16T09:46:03.668Z,16.10
2019-05-16T09:48:28.291Z,16.30
2019-05-16T09:50:57.470Z,16.40
2019-05-16T09:53:22.931Z,16.40
2019-05-16T09:55:49.327Z,16.40
2019-05-16T09:58:18.108Z,16.40
2019-05-16T10:00:47.066Z,16.30
2019-05-16T10:03:12.700Z,16.20
2019-05-16T10:05:39.219Z,16.30
2019-05-16T10:08:06.875Z,16.30
2019-05-16T10:10:33.644Z,16.40
2019-05-16T10:13:00.016Z,16.50
2019-05-16T10:15:27.003Z,16.70
2019-05-16T10:17:53.629Z,16.80
2019-05-16T10:20:20.276Z,16.90
2019-05-16T10:22:50.663Z,16.90
2019-05-16T10:25:19.354Z,16.90
2019-05-16T10:27:47.356Z,16.80
2019-05-16T10:30:17.540Z,16.70
2019-05-16T10:32:43.937Z,16.70
2019-05-16T10:35:10.857Z,16.60
2019-05-16T10:37:37.621Z,16.60
2019-05-16T10:40:07.317Z,16.70
2019-05-16T10:42:37.672Z,16.90
2019-05-16T10:45:08.297Z,17.10
2019-05-16T10:47:33.639Z,17.40
2019-05-16T10:50:00.242Z,17.50
2019-05-16T10:52:27.138Z,17.60
2019-05-16T10:54:58.305Z,17.60
2019-05-16T10:57:21.639Z,17.60
2019-05-16T11:00:05.333Z,17.70
2019-05-16T11:02:16.835Z,17.80
2019-05-16T11:04:57.393Z,17.90
2019-05-16T11:07:11.750Z,17.90
2019-05-16T11:09:39.470Z,17.90
2019-05-16T11:12:06.564Z,18.00
2019-05-16T11:14:33.125Z,17.90
2019-05-16T11:17:01.182Z,17.80
2019-05-16T11:19:28.374Z,17.70
2019-05-16T11:21:57.199Z,17.50
2019-05-16T11:24:23.182Z,17.30
2019-05-16T11:26:50.064Z,17.20
2019-05-16T11:29:17.268Z,17.20
2019-05-16T11:31:46.998Z,17.30
2019-05-16T11:34:14.421Z,17.30
2019-05-16T11:36:44.708Z,17.30
2019-05-16T11:39:11.961Z,17.40
2019-05-16T11:41:44.143Z,17.70
2019-05-16T11:44:17.390Z,17.90
2019-05-16T11:46:44.097Z,17.90
2019-05-16T11:49:11.967Z,17.90
2019-05-16T11:51:38.500Z,18.00
2019-05-16T11:54:06.762Z,18.40
2019-05-16T11:56:32.904Z,18.70
2019-05-16T11:58:59.178Z,18.70
2019-05-16T12:01:27.465Z,18.50
2019-05-16T12:03:53.505Z,18.50
2019-05-16T12:06:19.801Z,18.50
2019-05-16T12:08:46.728Z,18.60
2019-05-16T12:11:13.094Z,18.50
2019-05-16T12:13:39.269Z,18.40
2019-05-16T12:16:07.641Z,18.20
2019-05-16T12:18:33.771Z,18.00
2019-05-16T12:21:00.088Z,17.80
2019-05-16T12:23:27.585Z,17.60
2019-05-16T12:25:56.241Z,17.50
2019-05-16T12:28:22.144Z,17.30
2019-05-16T12:30:48.299Z,17.10
2019-05-16T12:33:14.612Z,16.90
2019-05-16T12:35:40.905Z,16.80
2019-05-16T12:38:08.133Z,16.70
2019-05-16T12:40:37.393Z,16.60
2019-05-16T12:43:03.054Z,16.50
2019-05-16T12:45:29.337Z,16.50
2019-05-16T12:47:57.288Z,16.50
2019-05-16T12:50:23.911Z,16.40
2019-05-16T12:52:50.097Z,16.50
2019-05-16T12:55:16.788Z,16.70
2019-05-16T12:57:42.998Z,16.70
2019-05-16T13:00:15.464Z,16.60
2019-05-16T13:02:40.147Z,16.60
2019-05-16T13:05:07.927Z,16.50
2019-05-16T13:07:34.336Z,16.50
2019-05-16T13:10:01.229Z,16.50
2019-05-16T13:12:27.579Z,16.60
2019-05-16T13:14:53.803Z,16.60
2019-05-16T13:17:22.048Z,16.70
2019-05-16T13:19:49.523Z,16.70
2019-05-16T13:22:17.064Z,16.80
2019-05-16T13:24:44.230Z,17.00
2019-05-16T13:27:10.682Z,17.10
2019-05-16T13:29:37.322Z,17.30
2019-05-16T13:32:03.607Z,17.30
2019-05-16T13:34:29.887Z,17.30
2019-05-16T13:36:57.897Z,17.20
2019-05-16T13:39:27.754Z,17.20
2019-05-16T13:41:54.407Z,17.00
2019-05-16T13:44:23.140Z,16.90
2019-05-16T13:46:49.830Z,16.70
2019-05-16T13:49:17.991Z,16.60
2019-05-16T13:51:44.763Z,16.50
2019-05-16T13:54:11.535Z,16.40
2019-05-16T13:56:40.323Z,16.40
2019-05-16T13:59:17.032Z,16.50
2019-05-16T14:01:43.252Z,16.60
2019-05-16T14:04:10.263Z,16.60
2019-05-16T14:06:44.311Z,16.50
2019-05-16T14:09:13.285Z,16.50
2019-05-16T14:11:40.020Z,16.50
2019-05-16T14:14:06.710Z,16.40
2019-05-16T14:16:39.553Z,16.30
2019-05-16T14:19:07.496Z,16.20
2019-05-16T14:21:33.978Z,16.20
2019-05-16T14:24:00.805Z,16.10
2019-05-16T14:26:27.321Z,16.10
2019-05-16T14:28:54.078Z,16.10
2019-05-16T14:31:22.669Z,16.00
2019-05-16T14:33:49.130Z,15.90
2019-05-16T14:36:15.635Z,15.80
2019-05-16T14:38:42.229Z,15.70
2019-05-16T14:41:09.912Z,15.70
2019-05-16T14:43:36.568Z,15.70
2019-05-16T14:46:06.417Z,15.60
2019-05-16T14:48:31.935Z,15.60
2019-05-16T14:50:58.854Z,15.40
2019-05-16T14:53:28.187Z,15.30
2019-05-16T14:55:53.678Z,15.10
2019-05-16T14:58:20.888Z,14.90
2019-05-16T15:00:49.172Z,14.80
2019-05-16T15:03:18.109Z,14.60
2019-05-16T15:05:44.632Z,14.50
2019-05-16T15:08:11.035Z,14.40
2019-05-16T15:10:38.157Z,14.30
2019-05-16T15:13:07.871Z,14.30
2019-05-16T15:15:34.196Z,14.20
2019-05-16T15:18:00.845Z,14.20
2019-05-16T15:20:28.008Z,14.10
2019-05-16T15:22:56.736Z,14.20
2019-05-16T15:25:23.238Z,14.20
2019-05-16T15:27:49.691Z,14.10
2019-05-16T15:30:17.219Z,14.10
2019-05-16T15:32:44.155Z,14.10
2019-05-16T15:35:11.347Z,14.10
2019-05-16T15:37:38.410Z,14.10
2019-05-16T15:40:08.543Z,14.00
2019-05-16T15:42:37.325Z,14.00
2019-05-16T15:45:07.008Z,14.10
2019-05-16T15:47:37.143Z,14.10
2019-05-16T15:50:07.947Z,14.10
2019-05-16T15:52:38.192Z,14.10
2019-05-16T15:55:09.626Z,14.10
2019-05-16T15:57:34.460Z,14.10
2019-05-16T16:00:01.254Z,14.10
2019-05-16T16:02:27.917Z,14.00
2019-05-16T16:04:54.356Z,13.90
2019-05-16T16:07:21.178Z,13.90
2019-05-16T16:09:47.723Z,13.90
2019-05-16T16:12:14.152Z,13.80
2019-05-16T16:14:41.033Z,13.70
2019-05-16T16:17:07.545Z,13.70
2019-05-16T16:19:34.107Z,13.70
2019-05-16T16:22:01.547Z,13.70
2019-05-16T16:24:28.141Z,13.80
2019-05-16T16:26:56.566Z,13.80
2019-05-16T16:29:22.825Z,13.80
2019-05-16T16:31:49.525Z,13.90
2019-05-16T16:34:17.551Z,14.00
2019-05-16T16:36:44.232Z,14.00
2019-05-16T16:39:10.814Z,14.00
2019-05-16T16:41:37.594Z,14.00
2019-05-16T16:44:04.291Z,14.00
2019-05-16T16:46:30.825Z,14.00
2019-05-16T16:48:57.226Z,13.90
2019-05-16T16:51:23.449Z,13.90
2019-05-16T16:53:49.848Z,13.90
2019-05-16T16:56:16.787Z,13.90
2019-05-16T16:58:43.764Z,13.90
2019-05-16T17:01:10.282Z,13.90
2019-05-16T17:03:37.172Z,13.90
2019-05-16T17:06:03.922Z,13.90
2019-05-16T17:08:30.257Z,13.90
2019-05-16T17:10:57.577Z,13.90
2019-05-16T17:13:24.662Z,13.90
2019-05-16T17:15:51.196Z,13.90
2019-05-16T17:18:17.726Z,13.90
2019-05-16T17:20:44.579Z,13.90
2019-05-16T17:23:11.093Z,13.80
2019-05-16T17:25:37.492Z,13.80
2019-05-16T17:28:06.729Z,13.80
2019-05-16T17:30:33.112Z,13.80
2019-05-16T17:32:59.405Z,13.70
2019-05-16T17:35:26.922Z,13.80
2019-05-16T17:37:53.362Z,13.80
2019-05-16T17:40:20.110Z,13.80
2019-05-16T17:42:47.730Z,13.80
2019-05-16T17:45:18.035Z,13.80
2019-05-16T17:47:46.604Z,13.80
2019-05-16T17:50:14.061Z,13.80
2019-05-16T17:52:40.904Z,13.70
2019-05-16T17:55:07.872Z,13.70
2019-05-16T17:57:36.952Z,13.70
2019-05-16T18:00:07.097Z,13.60
2019-05-16T18:02:33.645Z,13.60
2019-05-16T18:05:00.338Z,13.60
2019-05-16T18:07:27.020Z,13.50
2019-05-16T18:09:53.551Z,13.50
2019-05-16T18:12:19.890Z,13.50
2019-05-16T18:14:49.727Z,13.40
2019-05-16T18:17:14.837Z,13.40
2019-05-16T18:19:41.397Z,13.40
2019-05-16T18:22:07.636Z,13.40
2019-05-16T18:24:36.775Z,13.40
2019-05-16T18:27:03.281Z,13.30
2019-05-16T18:29:29.661Z,13.30
2019-05-16T18:31:55.923Z,13.20
2019-05-16T18:34:22.307Z,13.20
2019-05-16T18:36:49.618Z,13.20
2019-05-16T18:39:16.208Z,13.20
2019-05-16T18:41:43.675Z,13.20
2019-05-16T18:44:10.223Z,13.20
2019-05-16T18:46:36.823Z,13.20
2019-05-16T18:49:03.311Z,13.20
2019-05-16T18:51:31.135Z,13.10
2019-05-16T18:53:58.246Z,13.00
2019-05-16T18:56:27.202Z,13.00
2019-05-16T18:58:53.792Z,12.90
2019-05-16T19:01:19.995Z,12.90
2019-05-16T19:03:48.821Z,12.90
2019-05-16T19:06:17.006Z,12.90
2019-05-16T19:08:43.656Z,12.90
2019-05-16T19:11:10.110Z,12.90
2019-05-16T19:13:37.168Z,12.80
2019-05-16T19:16:03.591Z,12.80
2019-05-16T19:18:29.989Z,12.70
2019-05-16T19:20:57.024Z,12.80
2019-05-16T19:23:23.579Z,12.80
2019-05-16T19:25:50.139Z,12.80
2019-05-16T19:28:16.918Z,12.80
2019-05-16T19:30:43.225Z,12.80
2019-05-16T19:33:09.660Z,12.80
2019-05-16T19:35:36.070Z,12.80
2019-05-16T19:38:02.881Z,12.80
2019-05-16T19:40:29.114Z,12.80
2019-05-16T19:42:56.583Z,12.80
2019-05-16T19:45:23.633Z,12.80
2019-05-16T19:47:50.188Z,12.90
2019-05-16T19:50:17.492Z,12.90
2019-05-16T19:52:44.222Z,12.90
2019-05-16T19:55:10.890Z,12.90
2019-05-16T19:57:37.607Z,12.90
2019-05-16T20:00:06.421Z,12.90
2019-05-16T20:02:32.753Z,13.00
2019-05-16T20:04:59.063Z,13.00
2019-05-16T20:07:26.367Z,13.00
2019-05-16T20:09:52.861Z,13.10
2019-05-16T20:12:19.205Z,13.10
2019-05-16T20:14:47.288Z,13.10
2019-05-16T20:17:16.155Z,13.10
2019-05-16T20:19:43.237Z,13.10
2019-05-16T20:22:09.608Z,13.10
2019-05-16T20:24:36.299Z,13.10
2019-05-16T20:27:05.066Z,13.10
2019-05-16T20:29:31.323Z,13.10
2019-05-16T20:31:59.510Z,13.20
2019-05-16T20:34:26.805Z,13.20
2019-05-16T20:36:53.338Z,13.20
2019-05-16T20:39:19.676Z,13.20
2019-05-16T20:41:47.529Z,13.20
2019-05-16T20:44:13.955Z,13.10
2019-05-16T20:46:40.747Z,13.20
2019-05-16T20:49:08.052Z,13.20
2019-05-16T20:51:34.739Z,13.20
2019-05-16T20:54:00.935Z,13.20
2019-05-16T20:56:28.015Z,13.20
2019-05-16T20:58:54.494Z,13.20
2019-05-16T21:01:20.896Z,13.20
2019-05-16T21:03:47.300Z,13.20
2019-05-16T21:06:13.809Z,13.20
2019-05-16T21:08:40.592Z,13.20
2019-05-16T21:11:06.985Z,13.20
2019-05-16T21:13:33.500Z,13.20
2019-05-16T21:15:59.911Z,13.20
2019-05-16T21:18:26.329Z,13.20
2019-05-16T21:20:52.625Z,13.20
2019-05-16T21:23:19.606Z,13.20
2019-05-16T21:25:46.636Z,13.20
2019-05-16T21:28:13.145Z,13.20
2019-05-16T21:30:39.452Z,13.20
2019-05-16T21:33:05.694Z,13.20
2019-05-16T21:35:31.867Z,13.20
2019-05-16T21:37:58.232Z,13.20
2019-05-16T21:40:26.530Z,13.20
2019-05-16T21:42:52.916Z,13.20
2019-05-16T21:45:19.401Z,13.10
2019-05-16T21:47:47.031Z,13.10
2019-05-16T21:50:13.934Z,13.10
2019-05-16T21:52:40.618Z,13.10
2019-05-16T21:55:08.245Z,13.10
2019-05-16T21:57:37.483Z,13.10
2019-05-16T22:00:26.660Z,13.10
2019-05-16T22:02:53.214Z,13.10
2019-05-16T22:05:19.950Z,13.10
2019-05-16T22:07:47.393Z,13.00
2019-05-16T22:10:14.610Z,13.00
2019-05-16T22:12:41.197Z,13.00
2019-05-16T22:15:08.083Z,13.00
2019-05-16T22:17:36.474Z,13.00
2019-05-16T22:20:06.870Z,13.00
2019-05-16T22:22:32.932Z,13.00
2019-05-16T22:24:59.223Z,13.00
2019-05-16T22:27:26.894Z,13.00
2019-05-16T22:29:53.347Z,13.00
2019-05-16T22:32:19.610Z,13.00
2019-05-16T22:34:47.656Z,13.00
2019-05-16T22:37:14.553Z,13.00
2019-05-16T22:39:40.785Z,13.00
2019-05-16T22:42:09.316Z,13.00
2019-05-16T22:44:37.193Z,12.90
2019-05-16T22:47:03.804Z,12.90
2019-05-16T22:49:30.246Z,12.90
2019-05-16T22:51:57.119Z,12.90
2019-05-16T22:54:26.162Z,12.90
2019-05-16T22:56:52.759Z,12.90
2019-05-16T22:59:19.064Z,12.90
2019-05-16T23:01:45.559Z,12.90
2019-05-16T23:04:12.025Z,12.90
2019-05-16T23:06:38.281Z,12.80
2019-05-16T23:09:06.915Z,12.80
2019-05-16T23:11:33.377Z,12.80
2019-05-16T23:13:59.851Z,12.80
2019-05-16T23:16:26.717Z,12.80
2019-05-16T23:18:53.521Z,12.80
2019-05-16T23:21:19.954Z,12.80
2019-05-16T23:23:46.612Z,12.80
2019-05-16T23:26:13.118Z,12.80
2019-05-16T23:28:39.465Z,12.80
2019-05-16T23:31:06.215Z,12.80
2019-05-16T23:33:32.774Z,12.80
2019-05-16T23:35:59.200Z,12.80
2019-05-16T23:38:27.649Z,12.80
2019-05-16T23:40:53.826Z,12.80
2019-05-16T23:43:20.260Z,12.80
2019-05-16T23:45:46.985Z,12.80
2019-05-16T23:48:13.322Z,12.70
2019-05-16T23:50:39.681Z,12.70
2019-05-16T23:53:07.415Z,12.70
2019-05-16T23:55:36.871Z,12.70
2019-05-16T23:58:02.309Z,12.70
